sensor_id;sensor_type;location;lat;lon;timestamp;pressure;altitude;pressure_sealevel;temperature;humidity
49709;BME280;35601;55.902;13.606;2023-11-22T00:01:50;102033.37;;;-5.28;70.15
49709;BME280;35601;55.902;13.606;2023-11-22T00:04:16;102029.40;;;-5.34;70.48
49709;BME280;35601;55.902;13.606;2023-11-22T00:06:41;102028.15;;;-5.42;70.61
49709;BME280;35601;55.902;13.606;2023-11-22T00:09:06;102023.75;;;-5.62;70.57
49709;BME280;35601;55.902;13.606;2023-11-22T00:11:31;102024.80;;;-5.31;70.50
49709;BME280;35601;55.902;13.606;2023-11-22T00:13:57;102026.18;;;-5.59;69.91
49709;BME280;35601;55.902;13.606;2023-11-22T00:16:22;102024.39;;;-5.38;69.82
49709;BME280;35601;55.902;13.606;2023-11-22T00:18:48;102022.16;;;-5.87;69.67
49709;BME280;35601;55.902;13.606;2023-11-22T00:21:13;102020.29;;;-5.91;69.62
49709;BME280;35601;55.902;13.606;2023-11-22T00:23:38;102016.88;;;-5.49;69.36
49709;BME280;35601;55.902;13.606;2023-11-22T00:26:04;102016.71;;;-5.77;69.40
49709;BME280;35601;55.902;13.606;2023-11-22T00:28:29;102019.59;;;-5.60;69.78
49709;BME280;35601;55.902;13.606;2023-11-22T00:30:54;102024.09;;;-5.63;70.12
49709;BME280;35601;55.902;13.606;2023-11-22T00:33:19;102025.50;;;-5.63;70.51
49709;BME280;35601;55.902;13.606;2023-11-22T00:35:45;102024.91;;;-5.58;70.50
49709;BME280;35601;55.902;13.606;2023-11-22T00:38:10;102024.97;;;-5.49;70.27
49709;BME280;35601;55.902;13.606;2023-11-22T00:40:35;102027.60;;;-5.52;69.86
49709;BME280;35601;55.902;13.606;2023-11-22T00:43:01;102030.19;;;-5.49;69.85
49709;BME280;35601;55.902;13.606;2023-11-22T00:45:26;102031.75;;;-5.47;69.65
49709;BME280;35601;55.902;13.606;2023-11-22T00:47:51;102032.45;;;-5.59;69.55
49709;BME280;35601;55.902;13.606;2023-11-22T00:50:17;102033.88;;;-5.63;69.79
49709;BME280;35601;55.902;13.606;2023-11-22T00:52:42;102033.35;;;-5.59;69.38
49709;BME280;35601;55.902;13.606;2023-11-22T00:55:08;102035.23;;;-5.66;68.35
49709;BME280;35601;55.902;13.606;2023-11-22T00:57:33;102036.07;;;-5.79;67.60
49709;BME280;35601;55.902;13.606;2023-11-22T00:59:59;102032.41;;;-5.92;67.59
49709;BME280;35601;55.902;13.606;2023-11-22T01:02:25;102041.16;;;-5.98;67.71
49709;BME280;35601;55.902;13.606;2023-11-22T01:04:50;102045.65;;;-6.03;68.20
49709;BME280;35601;55.902;13.606;2023-11-22T01:07:16;102051.66;;;-6.06;68.67
49709;BME280;35601;55.902;13.606;2023-11-22T01:09:41;102059.40;;;-6.13;69.37
49709;BME280;35601;55.902;13.606;2023-11-22T01:12:06;102060.60;;;-5.88;69.62
49709;BME280;35601;55.902;13.606;2023-11-22T01:14:31;102062.84;;;-5.86;69.78
49709;BME280;35601;55.902;13.606;2023-11-22T01:16:57;102066.65;;;-6.09;69.77
49709;BME280;35601;55.902;13.606;2023-11-22T01:19:22;102067.15;;;-6.01;69.76
49709;BME280;35601;55.902;13.606;2023-11-22T01:21:47;102064.39;;;-5.99;69.76
49709;BME280;35601;55.902;13.606;2023-11-22T01:24:13;102064.58;;;-5.97;69.69
49709;BME280;35601;55.902;13.606;2023-11-22T01:26:38;102069.12;;;-5.96;69.44
49709;BME280;35601;55.902;13.606;2023-11-22T01:29:04;102069.79;;;-5.93;69.12
49709;BME280;35601;55.902;13.606;2023-11-22T01:31:29;102070.58;;;-6.01;69.02
49709;BME280;35601;55.902;13.606;2023-11-22T01:33:55;102070.26;;;-6.01;69.14
49709;BME280;35601;55.902;13.606;2023-11-22T01:36:20;102074.23;;;-6.12;69.11
49709;BME280;35601;55.902;13.606;2023-11-22T01:38:46;102074.33;;;-6.05;69.22
49709;BME280;35601;55.902;13.606;2023-11-22T01:41:11;102068.12;;;-6.01;68.95
49709;BME280;35601;55.902;13.606;2023-11-22T01:43:37;102060.18;;;-6.03;68.20
49709;BME280;35601;55.902;13.606;2023-11-22T01:46:02;102053.56;;;-6.09;68.01
49709;BME280;35601;55.902;13.606;2023-11-22T01:48:28;102047.01;;;-6.14;68.13
49709;BME280;35601;55.902;13.606;2023-11-22T01:50:53;102041.76;;;-6.12;68.08
49709;BME280;35601;55.902;13.606;2023-11-22T01:53:18;102034.36;;;-6.19;67.44
49709;BME280;35601;55.902;13.606;2023-11-22T01:55:44;102037.61;;;-6.29;68.03
49709;BME280;35601;55.902;13.606;2023-11-22T01:58:10;102044.25;;;-6.31;68.87
49709;BME280;35601;55.902;13.606;2023-11-22T02:00:43;102047.21;;;-6.40;69.31
49709;BME280;35601;55.902;13.606;2023-11-22T02:03:00;102048.95;;;-6.37;69.26
49709;BME280;35601;55.902;13.606;2023-11-22T02:05:26;102043.72;;;-6.36;69.21
49709;BME280;35601;55.902;13.606;2023-11-22T02:07:51;102045.72;;;-6.38;69.10
49709;BME280;35601;55.902;13.606;2023-11-22T02:10:17;102052.03;;;-6.37;68.95
49709;BME280;35601;55.902;13.606;2023-11-22T02:12:42;102051.85;;;-5.90;69.04
49709;BME280;35601;55.902;13.606;2023-11-22T02:15:09;102049.35;;;-6.43;68.65
49709;BME280;35601;55.902;13.606;2023-11-22T02:17:33;102054.12;;;-6.57;68.68
49709;BME280;35601;55.902;13.606;2023-11-22T02:19:59;102056.78;;;-6.45;68.60
49709;BME280;35601;55.902;13.606;2023-11-22T02:22:24;102056.04;;;-6.49;67.49
49709;BME280;35601;55.902;13.606;2023-11-22T02:24:50;102053.63;;;-6.74;66.04
49709;BME280;35601;55.902;13.606;2023-11-22T02:27:15;102059.17;;;-6.23;66.08
49709;BME280;35601;55.902;13.606;2023-11-22T02:29:40;102060.27;;;-6.74;65.68
49709;BME280;35601;55.902;13.606;2023-11-22T02:32:06;102063.80;;;-6.56;65.39
49709;BME280;35601;55.902;13.606;2023-11-22T02:34:31;102065.00;;;-6.67;65.86
49709;BME280;35601;55.902;13.606;2023-11-22T02:36:57;102059.39;;;-6.44;66.16
49709;BME280;35601;55.902;13.606;2023-11-22T02:39:27;102053.85;;;-6.49;66.47
49709;BME280;35601;55.902;13.606;2023-11-22T02:41:48;102049.79;;;-6.53;66.83
49709;BME280;35601;55.902;13.606;2023-11-22T02:44:13;102043.44;;;-6.53;67.29
49709;BME280;35601;55.902;13.606;2023-11-22T02:46:39;102046.95;;;-6.81;67.71
49709;BME280;35601;55.902;13.606;2023-11-22T02:49:04;102050.06;;;-6.51;67.85
49709;BME280;35601;55.902;13.606;2023-11-22T02:51:30;102050.46;;;-6.77;67.83
49709;BME280;35601;55.902;13.606;2023-11-22T02:53:55;102047.79;;;-6.52;67.83
49709;BME280;35601;55.902;13.606;2023-11-22T02:56:21;102051.38;;;-6.66;68.39
49709;BME280;35601;55.902;13.606;2023-11-22T02:58:46;102056.40;;;-6.81;68.93
49709;BME280;35601;55.902;13.606;2023-11-22T03:01:12;102064.80;;;-6.94;68.97
49709;BME280;35601;55.902;13.606;2023-11-22T03:03:37;102063.18;;;-6.71;68.58
49709;BME280;35601;55.902;13.606;2023-11-22T03:06:03;102068.05;;;-6.62;68.16
49709;BME280;35601;55.902;13.606;2023-11-22T03:08:28;102070.53;;;-6.56;67.76
49709;BME280;35601;55.902;13.606;2023-11-22T03:10:54;102071.12;;;-6.60;66.98
49709;BME280;35601;55.902;13.606;2023-11-22T03:13:19;102071.70;;;-6.83;66.69
49709;BME280;35601;55.902;13.606;2023-11-22T03:15:45;102074.31;;;-6.69;67.09
49709;BME280;35601;55.902;13.606;2023-11-22T03:18:10;102076.10;;;-7.04;67.66
49709;BME280;35601;55.902;13.606;2023-11-22T03:20:35;102080.08;;;-7.15;68.69
49709;BME280;35601;55.902;13.606;2023-11-22T03:23:01;102079.98;;;-7.08;68.18
49709;BME280;35601;55.902;13.606;2023-11-22T03:25:27;102077.12;;;-7.02;66.86
49709;BME280;35601;55.902;13.606;2023-11-22T03:27:52;102079.65;;;-6.99;66.17
49709;BME280;35601;55.902;13.606;2023-11-22T03:30:18;102077.20;;;-7.03;66.52
49709;BME280;35601;55.902;13.606;2023-11-22T03:32:43;102076.14;;;-7.01;66.42
49709;BME280;35601;55.902;13.606;2023-11-22T03:35:09;102079.58;;;-7.03;66.25
49709;BME280;35601;55.902;13.606;2023-11-22T03:37:34;102087.56;;;-6.82;66.58
49709;BME280;35601;55.902;13.606;2023-11-22T03:40:00;102085.93;;;-7.15;67.09
49709;BME280;35601;55.902;13.606;2023-11-22T03:42:25;102086.40;;;-7.13;67.22
49709;BME280;35601;55.902;13.606;2023-11-22T03:44:50;102081.94;;;-7.12;67.04
49709;BME280;35601;55.902;13.606;2023-11-22T03:47:17;102077.99;;;-7.15;66.94
49709;BME280;35601;55.902;13.606;2023-11-22T03:49:41;102067.48;;;-7.09;66.78
49709;BME280;35601;55.902;13.606;2023-11-22T03:52:07;102062.44;;;-7.13;65.84
49709;BME280;35601;55.902;13.606;2023-11-22T03:54:32;102064.08;;;-7.31;65.39
49709;BME280;35601;55.902;13.606;2023-11-22T03:56:58;102067.20;;;-7.09;65.38
49709;BME280;35601;55.902;13.606;2023-11-22T03:59:23;102069.86;;;-7.40;66.31
49709;BME280;35601;55.902;13.606;2023-11-22T04:01:49;102067.03;;;-7.42;66.71
49709;BME280;35601;55.902;13.606;2023-11-22T04:04:14;102068.98;;;-7.41;66.76
49709;BME280;35601;55.902;13.606;2023-11-22T04:06:40;102069.48;;;-7.18;66.52
49709;BME280;35601;55.902;13.606;2023-11-22T04:09:05;102069.44;;;-7.24;66.68
49709;BME280;35601;55.902;13.606;2023-11-22T04:11:31;102067.48;;;-7.54;67.59
49709;BME280;35601;55.902;13.606;2023-11-22T04:13:56;102063.95;;;-7.50;67.72
49709;BME280;35601;55.902;13.606;2023-11-22T04:16:22;102066.55;;;-7.48;67.84
49709;BME280;35601;55.902;13.606;2023-11-22T04:18:47;102068.35;;;-7.22;67.83
49709;BME280;35601;55.902;13.606;2023-11-22T04:21:13;102076.28;;;-7.45;67.98
49709;BME280;35601;55.902;13.606;2023-11-22T04:23:38;102074.09;;;-7.17;68.12
49709;BME280;35601;55.902;13.606;2023-11-22T04:26:04;102075.99;;;-7.36;67.60
49709;BME280;35601;55.902;13.606;2023-11-22T04:28:30;102073.39;;;-7.36;67.10
49709;BME280;35601;55.902;13.606;2023-11-22T04:30:55;102073.25;;;-7.39;66.68
49709;BME280;35601;55.902;13.606;2023-11-22T04:33:20;102077.84;;;-7.24;66.16
49709;BME280;35601;55.902;13.606;2023-11-22T04:35:45;102079.36;;;-7.49;66.30
49709;BME280;35601;55.902;13.606;2023-11-22T04:38:10;102072.73;;;-7.51;66.33
49709;BME280;35601;55.902;13.606;2023-11-22T04:40:37;102067.32;;;-7.31;66.00
49709;BME280;35601;55.902;13.606;2023-11-22T04:43:01;102063.84;;;-7.35;65.90
49709;BME280;35601;55.902;13.606;2023-11-22T04:45:27;102055.18;;;-7.67;65.41
49709;BME280;35601;55.902;13.606;2023-11-22T04:47:53;102046.39;;;-8.01;67.57
49709;BME280;35601;55.902;13.606;2023-11-22T04:50:18;102043.94;;;-8.01;68.13
49709;BME280;35601;55.902;13.606;2023-11-22T04:52:44;102040.07;;;-7.94;67.39
49709;BME280;35601;55.902;13.606;2023-11-22T04:55:09;102040.82;;;-7.98;67.55
49709;BME280;35601;55.902;13.606;2023-11-22T04:57:35;102034.37;;;-7.99;67.76
49709;BME280;35601;55.902;13.606;2023-11-22T05:00:00;102031.96;;;-7.95;68.33
49709;BME280;35601;55.902;13.606;2023-11-22T05:02:26;102034.95;;;-7.90;69.04
49709;BME280;35601;55.902;13.606;2023-11-22T05:04:51;102028.45;;;-8.11;69.81
49709;BME280;35601;55.902;13.606;2023-11-22T05:07:17;102027.12;;;-7.80;70.07
49709;BME280;35601;55.902;13.606;2023-11-22T05:09:42;102032.01;;;-8.25;70.01
49709;BME280;35601;55.902;13.606;2023-11-22T05:12:08;102030.73;;;-7.71;70.06
49709;BME280;35601;55.902;13.606;2023-11-22T05:14:34;102025.23;;;-7.86;69.85
49709;BME280;35601;55.902;13.606;2023-11-22T05:16:59;102019.26;;;-7.79;69.56
49709;BME280;35601;55.902;13.606;2023-11-22T05:19:24;102012.87;;;-7.78;69.32
49709;BME280;35601;55.902;13.606;2023-11-22T05:21:50;102009.10;;;-7.72;69.34
49709;BME280;35601;55.902;13.606;2023-11-22T05:24:15;102013.20;;;-7.66;68.98
49709;BME280;35601;55.902;13.606;2023-11-22T05:26:41;102018.91;;;-7.68;68.96
49709;BME280;35601;55.902;13.606;2023-11-22T05:29:06;102021.90;;;-7.85;69.36
49709;BME280;35601;55.902;13.606;2023-11-22T05:31:32;102025.40;;;-7.84;69.62
49709;BME280;35601;55.902;13.606;2023-11-22T05:33:57;102036.92;;;-7.78;70.10
49709;BME280;35601;55.902;13.606;2023-11-22T05:36:23;102039.30;;;-8.08;70.71
49709;BME280;35601;55.902;13.606;2023-11-22T05:38:49;102048.13;;;-7.99;70.60
49709;BME280;35601;55.902;13.606;2023-11-22T05:41:14;102053.81;;;-8.01;70.87
49709;BME280;35601;55.902;13.606;2023-11-22T05:43:40;102060.77;;;-8.06;70.92
49709;BME280;35601;55.902;13.606;2023-11-22T05:46:05;102064.24;;;-7.98;70.90
49709;BME280;35601;55.902;13.606;2023-11-22T05:48:30;102058.62;;;-7.67;70.77
49709;BME280;35601;55.902;13.606;2023-11-22T05:50:56;102046.80;;;-9.04;70.87
49709;BME280;35601;55.902;13.606;2023-11-22T05:53:22;102045.85;;;-7.62;70.52
49709;BME280;35601;55.902;13.606;2023-11-22T05:55:48;102044.57;;;-7.85;70.36
49709;BME280;35601;55.902;13.606;2023-11-22T05:58:13;102043.70;;;-7.71;70.33
49709;BME280;35601;55.902;13.606;2023-11-22T06:00:38;102028.86;;;-7.60;69.57
49709;BME280;35601;55.902;13.606;2023-11-22T06:03:04;102027.48;;;-7.73;69.76
49709;BME280;35601;55.902;13.606;2023-11-22T06:05:29;102016.95;;;-7.65;68.79
49709;BME280;35601;55.902;13.606;2023-11-22T06:07:55;102011.99;;;-7.38;67.88
49709;BME280;35601;55.902;13.606;2023-11-22T06:10:20;102011.91;;;-7.64;67.31
49709;BME280;35601;55.902;13.606;2023-11-22T06:12:46;102013.58;;;-7.67;67.02
49709;BME280;35601;55.902;13.606;2023-11-22T06:15:12;102007.26;;;-7.70;67.87
49709;BME280;35601;55.902;13.606;2023-11-22T06:17:38;102015.07;;;-7.68;68.00
49709;BME280;35601;55.902;13.606;2023-11-22T06:20:04;102002.12;;;-7.64;68.15
49709;BME280;35601;55.902;13.606;2023-11-22T06:22:28;101992.78;;;-7.86;67.73
49709;BME280;35601;55.902;13.606;2023-11-22T06:24:54;101981.45;;;-8.01;67.75
49709;BME280;35601;55.902;13.606;2023-11-22T06:27:20;101989.01;;;-7.90;67.98
49709;BME280;35601;55.902;13.606;2023-11-22T06:29:45;101996.82;;;-7.88;67.81
49709;BME280;35601;55.902;13.606;2023-11-22T06:32:10;102002.74;;;-7.69;69.15
49709;BME280;35601;55.902;13.606;2023-11-22T06:34:36;102011.15;;;-7.85;69.55
49709;BME280;35601;55.902;13.606;2023-11-22T06:37:02;102007.28;;;-7.77;68.85
49709;BME280;35601;55.902;13.606;2023-11-22T06:39:27;102018.12;;;-7.71;68.57
49709;BME280;35601;55.902;13.606;2023-11-22T06:41:53;102014.63;;;-7.75;69.21
49709;BME280;35601;55.902;13.606;2023-11-22T06:44:18;102028.81;;;-7.70;69.49
49709;BME280;35601;55.902;13.606;2023-11-22T06:46:44;102013.20;;;-7.63;69.46
49709;BME280;35601;55.902;13.606;2023-11-22T06:49:09;102020.52;;;-7.56;69.18
49709;BME280;35601;55.902;13.606;2023-11-22T06:51:35;102040.33;;;-7.73;69.74
49709;BME280;35601;55.902;13.606;2023-11-22T06:54:00;102045.83;;;-8.14;70.10
49709;BME280;35601;55.902;13.606;2023-11-22T06:56:25;102042.36;;;-7.70;69.87
49709;BME280;35601;55.902;13.606;2023-11-22T06:58:51;102040.20;;;-7.60;69.51
49709;BME280;35601;55.902;13.606;2023-11-22T07:01:16;102039.36;;;-7.76;68.90
49709;BME280;35601;55.902;13.606;2023-11-22T07:03:42;102038.26;;;-7.53;68.15
49709;BME280;35601;55.902;13.606;2023-11-22T07:06:08;102027.68;;;-7.51;67.78
49709;BME280;35601;55.902;13.606;2023-11-22T07:08:33;102042.64;;;-7.51;67.88
49709;BME280;35601;55.902;13.606;2023-11-22T07:10:59;102041.75;;;-7.51;68.05
49709;BME280;35601;55.902;13.606;2023-11-22T07:13:24;102029.87;;;-7.95;69.83
49709;BME280;35601;55.902;13.606;2023-11-22T07:15:50;102043.42;;;-7.56;70.47
49709;BME280;35601;55.902;13.606;2023-11-22T07:18:16;102051.08;;;-7.61;72.20
49709;BME280;35601;55.902;13.606;2023-11-22T07:20:40;102047.13;;;-7.46;72.23
49709;BME280;35601;55.902;13.606;2023-11-22T07:23:06;102062.38;;;-7.60;72.53
49709;BME280;35601;55.902;13.606;2023-11-22T07:25:31;102059.98;;;-7.66;72.91
49709;BME280;35601;55.902;13.606;2023-11-22T07:27:57;102044.61;;;-7.45;72.95
49709;BME280;35601;55.902;13.606;2023-11-22T07:30:22;102029.38;;;-7.45;72.69
49709;BME280;35601;55.902;13.606;2023-11-22T07:32:48;102026.94;;;-7.56;72.73
49709;BME280;35601;55.902;13.606;2023-11-22T07:35:13;102013.08;;;-7.37;72.71
49709;BME280;35601;55.902;13.606;2023-11-22T07:37:39;102006.85;;;-6.97;72.28
49709;BME280;35601;55.902;13.606;2023-11-22T07:40:05;102005.38;;;-7.07;71.83
49709;BME280;35601;55.902;13.606;2023-11-22T07:42:30;101997.33;;;-6.97;71.60
49709;BME280;35601;55.902;13.606;2023-11-22T07:44:55;101996.56;;;-6.88;71.48
49709;BME280;35601;55.902;13.606;2023-11-22T07:47:21;101994.91;;;-6.85;71.80
49709;BME280;35601;55.902;13.606;2023-11-22T07:49:46;101995.97;;;-6.81;72.51
49709;BME280;35601;55.902;13.606;2023-11-22T07:52:12;102005.55;;;-6.84;72.73
49709;BME280;35601;55.902;13.606;2023-11-22T07:54:37;102010.24;;;-6.76;72.91
49709;BME280;35601;55.902;13.606;2023-11-22T07:57:04;102006.61;;;-6.75;73.22
49709;BME280;35601;55.902;13.606;2023-11-22T07:59:29;102003.55;;;-6.81;73.77
49709;BME280;35601;55.902;13.606;2023-11-22T08:01:54;101998.52;;;-6.78;74.26
49709;BME280;35601;55.902;13.606;2023-11-22T08:04:19;101994.46;;;-6.67;74.69
49709;BME280;35601;55.902;13.606;2023-11-22T08:06:44;101995.47;;;-6.58;75.05
49709;BME280;35601;55.902;13.606;2023-11-22T08:09:10;101988.50;;;-6.28;74.63
49709;BME280;35601;55.902;13.606;2023-11-22T08:11:36;101996.20;;;-6.06;74.29
49709;BME280;35601;55.902;13.606;2023-11-22T08:14:02;101993.60;;;-6.40;73.64
49709;BME280;35601;55.902;13.606;2023-11-22T08:16:27;101987.31;;;-5.99;73.59
49709;BME280;35601;55.902;13.606;2023-11-22T08:18:53;101982.15;;;-5.89;73.63
49709;BME280;35601;55.902;13.606;2023-11-22T08:21:18;101975.94;;;-5.96;73.78
49709;BME280;35601;55.902;13.606;2023-11-22T08:23:45;101973.66;;;-5.81;73.71
49709;BME280;35601;55.902;13.606;2023-11-22T08:26:09;101968.10;;;-5.64;73.68
49709;BME280;35601;55.902;13.606;2023-11-22T08:28:34;101970.24;;;-5.56;73.75
49709;BME280;35601;55.902;13.606;2023-11-22T08:31:00;101977.53;;;-5.43;74.00
49709;BME280;35601;55.902;13.606;2023-11-22T08:33:25;101985.29;;;-5.88;75.05
49709;BME280;35601;55.902;13.606;2023-11-22T08:35:50;101983.63;;;-5.52;75.64
49709;BME280;35601;55.902;13.606;2023-11-22T08:38:16;101983.02;;;-5.49;75.26
49709;BME280;35601;55.902;13.606;2023-11-22T08:40:42;101986.16;;;-5.26;74.92
49709;BME280;35601;55.902;13.606;2023-11-22T08:43:07;101997.85;;;-5.47;75.13
49709;BME280;35601;55.902;13.606;2023-11-22T08:45:32;101995.05;;;-5.22;74.97
49709;BME280;35601;55.902;13.606;2023-11-22T08:47:58;101989.54;;;-4.83;74.74
49709;BME280;35601;55.902;13.606;2023-11-22T08:50:23;101989.56;;;-4.85;74.31
49709;BME280;35601;55.902;13.606;2023-11-22T08:52:48;101988.90;;;-4.69;73.99
49709;BME280;35601;55.902;13.606;2023-11-22T08:55:14;101984.20;;;-4.56;73.80
49709;BME280;35601;55.902;13.606;2023-11-22T08:57:39;101987.69;;;-4.45;74.02
49709;BME280;35601;55.902;13.606;2023-11-22T09:00:06;101983.48;;;-4.34;74.14
49709;BME280;35601;55.902;13.606;2023-11-22T09:02:30;101975.82;;;-4.19;74.03
49709;BME280;35601;55.902;13.606;2023-11-22T09:04:55;101978.61;;;-4.40;74.27
49709;BME280;35601;55.902;13.606;2023-11-22T09:07:20;101975.42;;;-4.01;74.37
49709;BME280;35601;55.902;13.606;2023-11-22T09:09:46;101960.14;;;-4.17;74.29
49709;BME280;35601;55.902;13.606;2023-11-22T09:12:11;101956.12;;;-4.33;74.45
49709;BME280;35601;55.902;13.606;2023-11-22T09:14:36;101952.21;;;-4.01;74.72
49709;BME280;35601;55.902;13.606;2023-11-22T09:17:02;101951.82;;;-3.65;74.85
49709;BME280;35601;55.902;13.606;2023-11-22T09:19:27;101950.46;;;-4.02;74.92
49709;BME280;35601;55.902;13.606;2023-11-22T09:21:53;101950.47;;;-3.96;74.95
49709;BME280;35601;55.902;13.606;2023-11-22T09:24:19;101954.63;;;-3.82;75.07
49709;BME280;35601;55.902;13.606;2023-11-22T09:26:45;101950.50;;;-3.48;75.13
49709;BME280;35601;55.902;13.606;2023-11-22T09:29:10;101947.99;;;-3.67;75.26
49709;BME280;35601;55.902;13.606;2023-11-22T09:31:35;101941.15;;;-3.58;75.39
49709;BME280;35601;55.902;13.606;2023-11-22T09:34:00;101940.77;;;-3.51;75.79
49709;BME280;35601;55.902;13.606;2023-11-22T09:36:26;101926.03;;;-3.63;75.77
49709;BME280;35601;55.902;13.606;2023-11-22T09:38:51;101916.51;;;-3.25;75.91
49709;BME280;35601;55.902;13.606;2023-11-22T09:41:17;101916.39;;;-3.21;76.12
49709;BME280;35601;55.902;13.606;2023-11-22T09:43:42;101900.15;;;-3.23;76.88
49709;BME280;35601;55.902;13.606;2023-11-22T09:46:08;101882.83;;;-3.40;77.25
49709;BME280;35601;55.902;13.606;2023-11-22T09:48:33;101873.43;;;-3.40;77.87
49709;BME280;35601;55.902;13.606;2023-11-22T09:51:03;101861.22;;;-2.99;77.64
49709;BME280;35601;55.902;13.606;2023-11-22T09:53:30;101857.40;;;-3.17;77.91
49709;BME280;35601;55.902;13.606;2023-11-22T09:55:49;101858.41;;;-3.20;78.93
49709;BME280;35601;55.902;13.606;2023-11-22T09:58:16;101853.11;;;-3.49;80.00
49709;BME280;35601;55.902;13.606;2023-11-22T10:00:40;101846.19;;;-3.38;81.32
49709;BME280;35601;55.902;13.606;2023-11-22T10:03:05;101848.06;;;-3.17;83.53
49709;BME280;35601;55.902;13.606;2023-11-22T10:05:30;101840.00;;;-3.53;85.39
49709;BME280;35601;55.902;13.606;2023-11-22T10:07:56;101828.98;;;-3.58;86.17
49709;BME280;35601;55.902;13.606;2023-11-22T10:10:21;101817.22;;;-3.40;87.24
49709;BME280;35601;55.902;13.606;2023-11-22T10:12:47;101809.72;;;-3.62;88.49
49709;BME280;35601;55.902;13.606;2023-11-22T10:15:14;101806.46;;;-3.48;88.87
49709;BME280;35601;55.902;13.606;2023-11-22T10:17:37;101809.55;;;-3.31;88.93
49709;BME280;35601;55.902;13.606;2023-11-22T10:20:03;101810.55;;;-3.25;88.89
49709;BME280;35601;55.902;13.606;2023-11-22T10:22:28;101806.38;;;-3.18;88.95
49709;BME280;35601;55.902;13.606;2023-11-22T10:24:53;101802.82;;;-3.12;89.44
49709;BME280;35601;55.902;13.606;2023-11-22T10:27:18;101804.95;;;-2.85;88.92
49709;BME280;35601;55.902;13.606;2023-11-22T10:29:43;101795.91;;;-2.65;88.69
49709;BME280;35601;55.902;13.606;2023-11-22T10:32:09;101788.00;;;-2.94;88.47
49709;BME280;35601;55.902;13.606;2023-11-22T10:34:34;101776.80;;;-2.66;87.71
49709;BME280;35601;55.902;13.606;2023-11-22T10:37:02;101778.59;;;-2.85;87.32
49709;BME280;35601;55.902;13.606;2023-11-22T10:39:25;101775.60;;;-2.55;87.54
49709;BME280;35601;55.902;13.606;2023-11-22T10:41:51;101766.80;;;-2.52;87.50
49709;BME280;35601;55.902;13.606;2023-11-22T10:44:16;101762.64;;;-2.54;88.48
49709;BME280;35601;55.902;13.606;2023-11-22T10:46:42;101747.75;;;-2.65;88.96
49709;BME280;35601;55.902;13.606;2023-11-22T10:49:07;101725.65;;;-2.38;89.44
49709;BME280;35601;55.902;13.606;2023-11-22T10:51:33;101718.51;;;-2.28;89.79
49709;BME280;35601;55.902;13.606;2023-11-22T10:53:58;101709.44;;;-2.63;89.68
49709;BME280;35601;55.902;13.606;2023-11-22T10:56:23;101693.19;;;-2.50;91.14
49709;BME280;35601;55.902;13.606;2023-11-22T10:58:50;101680.36;;;-2.41;90.96
49709;BME280;35601;55.902;13.606;2023-11-22T11:01:15;101668.63;;;-1.94;91.21
49709;BME280;35601;55.902;13.606;2023-11-22T11:03:40;101676.47;;;-2.25;90.85
49709;BME280;35601;55.902;13.606;2023-11-22T11:06:10;101676.54;;;-2.09;90.12
49709;BME280;35601;55.902;13.606;2023-11-22T11:08:30;101657.22;;;-1.90;89.27
49709;BME280;35601;55.902;13.606;2023-11-22T11:10:55;101647.41;;;-2.11;89.74
49709;BME280;35601;55.902;13.606;2023-11-22T11:13:20;101644.70;;;-2.00;89.72
49709;BME280;35601;55.902;13.606;2023-11-22T11:15:46;101659.53;;;-1.86;89.32
49709;BME280;35601;55.902;13.606;2023-11-22T11:18:14;101667.48;;;-1.75;88.22
49709;BME280;35601;55.902;13.606;2023-11-22T11:20:45;101660.25;;;-1.62;87.78
49709;BME280;35601;55.902;13.606;2023-11-22T11:23:02;101651.21;;;-1.65;86.94
49709;BME280;35601;55.902;13.606;2023-11-22T11:25:27;101654.17;;;-1.37;86.05
49709;BME280;35601;55.902;13.606;2023-11-22T11:27:56;101662.56;;;-1.31;85.65
49709;BME280;35601;55.902;13.606;2023-11-22T11:32:45;101654.26;;;-1.41;85.32
49709;BME280;35601;55.902;13.606;2023-11-22T11:35:08;101658.34;;;-1.44;85.40
49709;BME280;35601;55.902;13.606;2023-11-22T11:37:34;101658.29;;;-1.29;85.01
49709;BME280;35601;55.902;13.606;2023-11-22T11:39:58;101663.41;;;-1.21;85.52
49709;BME280;35601;55.902;13.606;2023-11-22T11:42:24;101659.41;;;-1.58;86.34
49709;BME280;35601;55.902;13.606;2023-11-22T11:45:04;101652.32;;;-1.28;86.77
49709;BME280;35601;55.902;13.606;2023-11-22T11:47:15;101639.71;;;-1.47;87.26
49709;BME280;35601;55.902;13.606;2023-11-22T11:49:40;101645.92;;;-1.40;87.12
49709;BME280;35601;55.902;13.606;2023-11-22T11:52:05;101650.84;;;-1.37;87.23
49709;BME280;35601;55.902;13.606;2023-11-22T11:54:30;101652.98;;;-1.37;87.17
49709;BME280;35601;55.902;13.606;2023-11-22T11:56:59;101628.56;;;-1.37;87.37
49709;BME280;35601;55.902;13.606;2023-11-22T11:59:21;101619.44;;;-1.43;88.59
49709;BME280;35601;55.902;13.606;2023-11-22T12:01:52;101590.80;;;-1.39;88.68
49709;BME280;35601;55.902;13.606;2023-11-22T12:04:12;101585.48;;;-1.85;90.56
49709;BME280;35601;55.902;13.606;2023-11-22T12:06:37;101598.45;;;-1.68;90.96
49709;BME280;35601;55.902;13.606;2023-11-22T12:09:03;101587.30;;;-1.62;90.87
49709;BME280;35601;55.902;13.606;2023-11-22T12:11:29;101582.55;;;-1.43;90.46
49709;BME280;35601;55.902;13.606;2023-11-22T12:13:54;101570.38;;;-1.51;90.75
49709;BME280;35601;55.902;13.606;2023-11-22T12:16:19;101542.75;;;-1.79;90.80
49709;BME280;35601;55.902;13.606;2023-11-22T12:18:45;101532.76;;;-1.59;92.09
49709;BME280;35601;55.902;13.606;2023-11-22T12:21:10;101522.50;;;-1.65;92.81
49709;BME280;35601;55.902;13.606;2023-11-22T12:23:35;101516.34;;;-1.69;92.66
49709;BME280;35601;55.902;13.606;2023-11-22T12:26:02;101514.11;;;-1.99;93.15
49709;BME280;35601;55.902;13.606;2023-11-22T12:28:27;101510.70;;;-1.80;92.90
49709;BME280;35601;55.902;13.606;2023-11-22T12:30:51;101502.29;;;-1.26;92.58
49709;BME280;35601;55.902;13.606;2023-11-22T12:33:16;101502.11;;;-1.76;93.29